KSGH/SGH METAR and TAF weather

Enter ICAO airport designator
Station Type Date Time Source
KSGH METAR 2022/01/26 07:56 UTC NOAA

KSGH 260756Z AUTO 29008KT 10SM CLR M16/M19 A3034 RMK AO2 SLP295 T11611194 FZRANO PNO $


Station Type Date Time Source
KSGH Decoded METAR 2022/01/26 07:56 UTC NOAA

Springfield, Springfield-Beckley Municipal Airport, OH, United States (KSGH) 39-50-25N 083-50-24W
Jan 26, 2022 - 02:56 AM EST / 2022.01.26 0756 UTC
Wind: from the WNW (290 degrees) at 9 MPH (8 KT):0
Visibility: 10 mile(s):0
Sky conditions: clear
Temperature: 3.0 F (-16.1 C)
Windchill: -11 F (-24 C):2
Dew Point: -2.9 F (-19.4 C)
Relative Humidity: 75%
Pressure (altimeter): 30.34 in. Hg (1027 hPa)
ob: KSGH 260756Z AUTO 29008KT 10SM CLR M16/M19 A3034 RMK AO2 SLP295 T11611194 FZRANO PNO
cycle: 8

Station Type Date Time Source
KSGH TAF UTC NOAA

Error!

Example: see airport list